WetterOnline ( http://www.wetteronline.de )

Wetter aktuell Braunschweig

Aktuelles Wetter: Braunschweig/Flughafen (88m)

6-stündlich | Neueste Meldungen
Ortszeit Temperatur Wetter
Mo, 23.04. 8:00 14.7° C bewölkt
Mo, 23.04. 2:00 13.3° C bewölkt
So, 22.04. 20:00 22.2° C bedeckt
So, 22.04. 14:00 21.6° C leicht bewölkt
So, 22.04. 8:00 11.2° C wolkenlos
So, 22.04. 2:00 10.1° C fast wolkenlos
Sa, 21.04. 20:00 18.0° C wolkig
Sa, 21.04. 14:00 19.3° C wolkenlos
Ortszeit Temperatur Wetter
Mo, 23.04. 9:30 15.3° C bewölkt
Mo, 23.04. 9:20 15.3° C bewölkt
Mo, 23.04. 9:10 15.4° C bewölkt
Mo, 23.04. 9:00 15.0° C bewölkt
Mo, 23.04. 8:50 15.0° C bewölkt
Mo, 23.04. 8:40 14.8° C bedeckt
Mo, 23.04. 8:30 14.8° C bewölkt
Mo, 23.04. 8:00 14.7° C bewölkt
Mo, 23.04. 7:30 14.2° C wolkig
Mo, 23.04. 7:00 13.8° C bewölkt
Mo, 23.04. 6:30 14.2° C leichter Regen
Ortszeit Relative Feuchte Sichtweite
Mo, 23.04. 8:00 89% 16 km
Mo, 23.04. 2:00 97% 2.5 km
So, 22.04. 20:00 58% 11 km
So, 22.04. 14:00 53% 18 km
So, 22.04. 8:00 72% 25 km
So, 22.04. 2:00 73% 60 km
Sa, 21.04. 20:00 45% 70 km
Sa, 21.04. 14:00 42% 20 km
Ortszeit Relative Feuchte Sichtweite
Mo, 23.04. 9:30 87% 13 km
Mo, 23.04. 9:20 87% -
Mo, 23.04. 9:10 86% -
Mo, 23.04. 9:00 88% 19 km
Mo, 23.04. 8:50 88% -
Mo, 23.04. 8:40 89% -
Mo, 23.04. 8:30 89% 18 km
Mo, 23.04. 8:00 89% 16 km
Mo, 23.04. 7:30 91% 13 km
Mo, 23.04. 7:00 96% 5.0 km
Mo, 23.04. 6:30 94% 5.0 km
Ortszeit Niederschlagsmenge Niederschlagsart
Mo, 23.04. 8:00 6 l/m2 in 12 Std. Regen
Mo, 23.04. 2:00 5 l/m2 in 6 Std. Regenschauer
So, 22.04. 20:00 0.1 l/m2 in 12 Std. -
So, 22.04. 14:00 0.1 l/m2 in 6 Std. Regen
So, 22.04. 8:00 0.0 l/m2 in 12 Std. -
So, 22.04. 2:00 0.0 l/m2 in 6 Std. -
Sa, 21.04. 20:00 0.0 l/m2 in 12 Std. -
Sa, 21.04. 14:00 0.0 l/m2 in 6 Std. -
Ortszeit Niederschlagsmenge Niederschlagsart
Mo, 23.04. 9:30 0.0 l/m2 in 1 Std. -
Mo, 23.04. 9:20 keine Meldung -
Mo, 23.04. 9:10 keine Meldung -
Mo, 23.04. 9:00 0.1 l/m2 in 1 Std. Regen
Mo, 23.04. 8:50 keine Meldung -
Mo, 23.04. 8:40 keine Meldung -
Mo, 23.04. 8:30 0.1 l/m2 in 1 Std. Schneeregen
Mo, 23.04. 8:00 0.0 l/m2 in 1 Std. Regen
Mo, 23.04. 7:30 0.0 l/m2 in 1 Std. -
Mo, 23.04. 7:00 1.5 l/m2 in 1 Std. Regen
Mo, 23.04. 6:30 1.3 l/m2 in 1 Std. -
Ortszeit Stärke Spitze Richtung
km/h Bft. km/h Grad Sektor
Mo, 23.04. 8:00 13 3 43 200° S
Mo, 23.04. 2:00 6 1 54 200° S
So, 22.04. 20:00 13 3 26 140° SO
So, 22.04. 14:00 13 3 19 80° O
So, 22.04. 8:00 4 1 7 120° SO
So, 22.04. 2:00 0 0 14 - -
Sa, 21.04. 20:00 7 2 25 330° NW
Sa, 21.04. 14:00 14 3 22 320° NW
Ortszeit Stärke Spitze Richtung
km/h Bft. km/h Grad Sektor
Mo, 23.04. 9:30 18 3 29 240° SW
Mo, 23.04. 9:20 18 3 - 240° SW
Mo, 23.04. 9:10 17 3 - 240° SW
Mo, 23.04. 9:00 17 3 28 220° SW
Mo, 23.04. 8:50 17 3 - 220° SW
Mo, 23.04. 8:40 11 2 - 240° SW
Mo, 23.04. 8:30 14 3 22 230° SW
Mo, 23.04. 8:00 13 3 22 200° S
Mo, 23.04. 7:30 9 2 15 210° SW
Mo, 23.04. 7:00 7 2 43 190° S
Mo, 23.04. 6:30 13 3 43 200° S
Ortszeit Untergrenze Bedeckung Gattung
total tief tief mittel hoch
Mo, 23.04. 8:00 2100 m 8/8 4/8 - - -
Mo, 23.04. 2:00 4200 m 8/8 6/8 - - -
So, 22.04. 20:00 3000 m 8/8 8/8 - - -
So, 22.04. 14:00 3600 m 5/8 1/8 - - -
So, 22.04. 8:00 - 0/8 0/8 - - -
So, 22.04. 2:00 10500 m 1/8 0/8 - - -
Sa, 21.04. 20:00 10500 m 8/8 0/8 - - -
Sa, 21.04. 14:00 9000 m 0/8 0/8 - - -
Ortszeit Bedeckungsgrad in Achtel und Wolkenuntergrenze
Mo, 23.04. 9:30 5(2700m) 8(4200m) 8(5100m)
Mo, 23.04. 9:20 5(2700m) 8(4200m) 8(5100m)
Mo, 23.04. 9:10 6(2700m) 7(3600m) 8(4200m)
Mo, 23.04. 9:00 5(2400m) 7(3300m) 8(4500m)
Mo, 23.04. 8:50 5(2400m) 7(3300m) 8(4500m)
Mo, 23.04. 8:40 1(540m) 8(2400m) 8(3000m)
Mo, 23.04. 8:30 5(2100m) 8(3300m) 8(3900m)
Mo, 23.04. 8:00 4(2100m) 8(3600m) 8(4800m)
Mo, 23.04. 7:30 5(2700m) 6(3300m) 7(5100m)
Mo, 23.04. 7:00 5(3000m) 7(3600m) 8(7800m)
Mo, 23.04. 6:30 3(150m) 7(2100m) 7(3000m)
Ortszeit Luftdruck NN (hPa) Tendenz (hPa in 3 Std.)
Mo, 23.04. 8:00 1011 + 0,7
Mo, 23.04. 2:00 1011 - 0,4
So, 22.04. 20:00 1010 - 1,3
So, 22.04. 14:00 1013 - 2,3
So, 22.04. 8:00 1018 - 0,8
So, 22.04. 2:00 1020 - 0,1
Sa, 21.04. 20:00 1019 - 0,7
Sa, 21.04. 14:00 1022 - 0,4
Ortszeit Luftdruck NN (hPa) Tendenz (hPa in 3 Std.)
Mo, 23.04. 9:30 1012 + 0,8
Mo, 23.04. 9:20 1012 keine Meldung
Mo, 23.04. 9:10 1012 keine Meldung
Mo, 23.04. 9:00 1012 + 0,5
Mo, 23.04. 8:50 1012 keine Meldung
Mo, 23.04. 8:40 1012 keine Meldung
Mo, 23.04. 8:30 1011 + 1,0
Mo, 23.04. 8:00 1011 + 0,7
Mo, 23.04. 7:30 1011 + 0,5
Mo, 23.04. 7:00 1011 + 0,4
Mo, 23.04. 6:30 1011 + 0,7
Ortszeit Schneehöhe (cm)
Mo, 23.04. 8:00 -
Mo, 23.04. 2:00 -
So, 22.04. 20:00 -
So, 22.04. 14:00 -
So, 22.04. 8:00 -
So, 22.04. 2:00 -
Sa, 21.04. 20:00 -
Sa, 21.04. 14:00 -
Ortszeit Schneehöhe (cm)
Mo, 23.04. 9:30 -
Mo, 23.04. 9:20 -
Mo, 23.04. 9:10 -
Mo, 23.04. 9:00 -
Mo, 23.04. 8:50 -
Mo, 23.04. 8:40 -
Mo, 23.04. 8:30 -
Mo, 23.04. 8:00 -
Mo, 23.04. 7:30 -
Mo, 23.04. 7:00 -
Mo, 23.04. 6:30 -
Link zu dieser Seite / Seite empfehlen

Das Wetter in ...